Time;durP1;ratioP1;P1;durP2;ratioP2;P2;SDS_P1;SDS_P2;PMS_P1;PMS_P2;Temp;Humidity;BMP_temperature;BMP_pressure;BME280_temperature;BME280_humidity;BME280_pressure;Samples;Min_cycle;Max_cycle;Signal;HPM_P1;HPM_P2
2022/06/25 00:01:07;;;;;;;3.15;1.25;;;20.20;81.50;;;;;;5044158;28;20151;-70
2022/06/25 00:03:35;;;;;;;2.80;1.40;;;20.20;81.60;;;;;;5058080;28;20492;-70
2022/06/25 00:06:01;;;;;;;3.30;1.10;;;20.10;81.60;;;;;;5059942;28;20128;-69
2022/06/25 00:08:37;;;;;;;3.05;1.25;;;20.20;81.50;;;;;;5052779;28;20494;-68
2022/06/25 00:11:04;;;;;;;2.13;1.13;;;20.20;81.60;;;;;;5051568;28;20044;-68
2022/06/25 00:13:30;;;;;;;4.55;1.20;;;20.20;81.50;;;;;;5054378;28;20540;-69
2022/06/25 00:15:58;;;;;;;2.10;0.98;;;20.10;81.60;;;;;;5055423;28;20507;-66
2022/06/25 00:18:25;;;;;;;3.90;1.17;;;20.20;81.50;;;;;;5058187;28;20766;-65
2022/06/25 00:20:53;;;;;;;2.38;1.17;;;20.20;81.50;;;;;;5051890;28;20053;-68
2022/06/25 00:23:20;;;;;;;4.95;1.23;;;20.20;81.50;;;;;;5058399;28;20966;-69
2022/06/25 00:25:48;;;;;;;3.38;1.15;;;20.20;81.30;;;;;;5058745;28;20060;-68
2022/06/25 00:28:15;;;;;;;4.07;1.08;;;20.20;81.40;;;;;;5052786;28;20045;-68
2022/06/25 00:30:42;;;;;;;6.40;1.50;;;20.20;81.30;;;;;;5056873;28;20569;-70
2022/06/25 00:33:09;;;;;;;4.32;1.20;;;20.20;81.30;;;;;;5058705;28;20045;-68
2022/06/25 00:35:36;;;;;;;1.80;1.02;;;20.20;81.40;;;;;;5055413;28;20040;-69
2022/06/25 00:38:05;;;;;;;8.10;1.30;;;20.20;81.50;;;;;;5062050;28;20136;-66
2022/06/25 00:40:33;;;;;;;5.20;1.40;;;20.20;81.50;;;;;;5060085;28;20203;-71
2022/06/25 00:43:00;;;;;;;4.82;1.10;;;20.20;81.50;;;;;;5060497;28;20432;-69
2022/06/25 00:45:28;;;;;;;6.15;1.65;;;20.20;81.50;;;;;;5056434;28;20051;-67
2022/06/25 00:47:55;;;;;;;5.13;1.60;;;20.20;81.50;;;;;;5058056;28;20142;-69
2022/06/25 00:50:22;;;;;;;3.53;1.30;;;20.20;81.50;;;;;;5058697;28;20056;-66
2022/06/25 00:52:53;;;;;;;1.45;0.93;;;20.20;81.60;;;;;;5053258;28;20052;-69
2022/06/25 00:55:23;;;;;;;5.70;1.23;;;20.10;81.90;;;;;;5058656;28;20098;-70
2022/06/25 00:57:51;;;;;;;;;;;20.10;81.80;;;;;;5058845;28;20476;-66
2022/06/25 01:00:18;;;;;;;4.00;1.30;;;20.00;81.90;;;;;;5052041;28;19925;-67
2022/06/25 01:02:48;;;;;;;2.67;1.35;;;20.00;82.00;;;;;;5059796;28;20049;-69
2022/06/25 01:05:16;;;;;;;3.15;1.27;;;20.00;82.10;;;;;;5056912;28;20048;-71
2022/06/25 01:07:45;;;;;;;2.20;1.55;;;19.90;82.10;;;;;;5059065;28;20115;-67
2022/06/25 01:10:13;;;;;;;4.00;1.30;;;19.90;82.10;;;;;;5057639;28;20052;-71
2022/06/25 01:12:42;;;;;;;3.72;1.50;;;19.90;82.10;;;;;;5059104;28;20053;-68
2022/06/25 01:15:15;;;;;;;3.70;1.35;;;19.90;82.00;;;;;;5039515;28;20044;-68
2022/06/25 01:17:44;;;;;;;5.93;1.65;;;19.90;82.00;;;;;;5069646;28;20458;-67
2022/06/25 01:20:12;;;;;;;7.43;1.25;;;19.90;82.20;;;;;;5057314;28;20407;-69
2022/06/25 01:22:40;;;;;;;4.22;1.10;;;19.90;82.20;;;;;;5057995;28;20044;-68
2022/06/25 01:25:09;;;;;;;2.05;1.10;;;19.90;82.20;;;;;;5057230;28;20080;-71
2022/06/25 01:27:36;;;;;;;4.10;1.10;;;19.90;82.30;;;;;;5058685;28;20065;-70
2022/06/25 01:30:05;;;;;;;4.35;1.30;;;19.90;82.20;;;;;;5057446;28;20044;-68
2022/06/25 01:32:32;;;;;;;2.75;1.30;;;19.90;82.20;;;;;;5059412;28;20065;-67
2022/06/25 01:34:59;;;;;;;2.22;1.27;;;19.90;82.10;;;;;;5040831;28;20462;-66
2022/06/25 01:37:27;;;;;;;3.10;1.27;;;20.00;82.20;;;;;;5058161;28;20326;-68
2022/06/25 01:39:55;;;;;;;4.55;1.30;;;20.00;82.00;;;;;;5056532;28;20041;-66
2022/06/25 01:45:10;;;;;;;2.75;1.50;;;20.00;82.00;;;;;;5056772;28;20178;-66
2022/06/25 01:47:37;;;;;;;1.73;0.90;;;20.00;82.00;;;;;;5055879;28;20058;-67
2022/06/25 01:50:06;;;;;;;4.05;1.17;;;20.00;81.90;;;;;;5055206;28;20051;-67
2022/06/25 01:52:33;;;;;;;3.27;1.10;;;20.00;81.90;;;;;;5057697;28;20507;-67
2022/06/25 01:55:01;;;;;;;2.65;1.45;;;20.00;82.00;;;;;;5049160;28;20048;-71
2022/06/25 01:57:30;;;;;;;5.28;1.23;;;20.00;82.00;;;;;;5054221;28;20127;-69
2022/06/25 01:59:57;;;;;;;3.45;1.73;;;20.00;81.80;;;;;;5055118;28;20183;-68
2022/06/25 02:02:24;;;;;;;2.53;1.23;;;20.00;81.80;;;;;;5050183;28;20065;-69
2022/06/25 02:04:52;;;;;;;3.30;1.17;;;20.00;81.80;;;;;;5055944;28;20572;-68
2022/06/25 02:07:19;;;;;;;3.08;1.27;;;20.00;81.70;;;;;;5056868;28;20052;-65
2022/06/25 02:09:46;;;;;;;3.35;1.20;;;20.00;81.90;;;;;;5046221;28;20055;-66
2022/06/25 02:12:14;;;;;;;2.60;1.30;;;20.10;81.60;;;;;;5040309;28;20047;-67
2022/06/25 02:14:41;;;;;;;4.07;1.00;;;20.20;81.10;;;;;;5044699;28;20549;-66
2022/06/25 02:17:08;;;;;;;4.25;1.23;;;20.30;80.60;;;;;;5046479;28;20430;-68
2022/06/25 02:19:35;;;;;;;1.77;1.00;;;20.30;80.40;;;;;;5046478;28;20505;-66
2022/06/25 02:22:05;;;;;;;4.27;1.63;;;20.30;80.30;;;;;;5051632;28;20475;-65
2022/06/25 02:24:32;;;;;;;1.52;0.73;;;20.40;80.20;;;;;;5047665;28;20055;-65
2022/06/25 02:26:59;;;;;;;1.63;0.80;;;20.30;80.30;;;;;;5046063;28;20053;-68
2022/06/25 02:29:27;;;;;;;2.60;1.20;;;20.30;80.40;;;;;;5044965;28;20047;-71
2022/06/25 02:31:54;;;;;;;2.97;1.15;;;20.40;80.30;;;;;;5050766;28;20037;-67
2022/06/25 02:34:21;;;;;;;2.25;1.17;;;20.40;80.30;;;;;;5054951;28;20041;-68
2022/06/25 02:36:49;;;;;;;2.30;1.60;;;20.40;80.20;;;;;;5054889;28;20084;-68
2022/06/25 02:39:16;;;;;;;1.92;0.85;;;20.30;80.40;;;;;;5053572;28;20577;-70
2022/06/25 02:41:44;;;;;;;3.42;1.25;;;20.30;80.50;;;;;;5053494;28;20045;-69
2022/06/25 02:44:11;;;;;;;3.45;0.90;;;20.30;80.40;;;;;;5048438;28;20044;-66
2022/06/25 02:46:45;;;;;;;2.20;1.05;;;20.30;80.40;;;;;;5044894;28;20052;-68
2022/06/25 02:49:12;;;;;;;4.28;1.15;;;20.40;80.30;;;;;;5046914;28;20041;-66
2022/06/25 02:51:39;;;;;;;3.25;1.00;;;20.40;80.20;;;;;;5046437;28;20475;-68
2022/06/25 02:54:06;;;;;;;3.13;1.20;;;20.40;80.00;;;;;;5045517;28;20045;-65
2022/06/25 02:59:19;;;;;;;3.25;1.10;;;20.40;79.90;;;;;;5047388;28;20049;-65
2022/06/25 03:01:55;;;;;;;2.30;1.10;;;20.30;79.80;;;;;;5041287;28;20905;-65
2022/06/25 03:04:24;;;;;;;2.83;1.10;;;20.30;80.00;;;;;;5069182;28;20539;-68
2022/06/25 03:06:54;;;;;;;1.92;1.08;;;20.30;80.00;;;;;;5058511;28;20053;-66
2022/06/25 03:09:23;;;;;;;3.58;1.05;;;20.30;79.70;;;;;;5053028;28;20056;-68
2022/06/25 03:11:50;;;;;;;1.95;1.02;;;20.30;79.60;;;;;;5047795;28;20050;-66
2022/06/25 03:14:17;;;;;;;5.03;1.73;;;20.30;79.50;;;;;;5045894;28;20159;-69
2022/06/25 03:16:46;;;;;;;3.05;1.10;;;20.30;79.70;;;;;;5033044;28;20484;-71
2022/06/25 03:19:15;;;;;;;2.58;1.05;;;20.30;79.80;;;;;;5061237;28;20048;-67
2022/06/25 03:21:46;;;;;;;1.27;0.80;;;20.20;79.70;;;;;;5044014;28;20056;-65
2022/06/25 03:24:14;;;;;;;3.90;1.30;;;20.20;79.80;;;;;;5047242;28;20098;-70
2022/06/25 03:26:41;;;;;;;4.28;1.55;;;20.20;79.70;;;;;;5043788;28;20514;-67
2022/06/25 03:29:08;;;;;;;3.25;1.30;;;20.20;79.70;;;;;;5043542;28;20045;-65
2022/06/25 03:31:37;;;;;;;3.58;1.42;;;20.30;79.80;;;;;;5042159;28;20509;-65
2022/06/25 03:34:26;;;;;;;2.25;0.90;;;20.30;79.70;;;;;;5054631;28;20469;-68
2022/06/25 03:36:53;;;;;;;2.78;1.55;;;20.30;79.60;;;;;;5053762;28;20580;-67
2022/06/25 03:39:21;;;;;;;3.75;1.00;;;20.30;79.50;;;;;;5047154;28;20119;-68
2022/06/25 03:41:48;;;;;;;3.42;1.33;;;20.30;79.60;;;;;;5052583;28;20044;-69
2022/06/25 03:44:38;;;;;;;4.75;1.60;;;20.30;79.50;;;;;;5045387;28;20058;-65
2022/06/25 03:47:12;;;;;;;1.83;1.00;;;20.30;79.40;;;;;;5034979;28;20036;-66
2022/06/25 03:49:41;;;;;;;6.10;1.23;;;20.20;79.50;;;;;;5052804;28;20064;-69
2022/06/25 03:52:12;;;;;;;2.80;1.42;;;20.30;79.40;;;;;;5046198;28;20127;-68
2022/06/25 03:54:39;;;;;;;1.58;1.02;;;20.30;79.50;;;;;;5048622;28;20522;-69
2022/06/25 03:57:06;;;;;;;5.45;1.35;;;20.30;79.40;;;;;;5048416;28;20974;-70
2022/06/25 03:59:45;;;;;;;2.63;1.10;;;20.20;79.40;;;;;;5053218;28;20073;-65
2022/06/25 04:02:22;;;;;;;3.35;1.33;;;20.20;79.50;;;;;;5056208;28;20412;-70
2022/06/25 04:05:10;;;;;;;2.88;0.95;;;20.20;79.40;;;;;;5060706;28;20053;-70
2022/06/25 04:07:37;;;;;;;3.60;1.52;;;20.20;79.50;;;;;;5058337;28;20448;-66
2022/06/25 04:10:09;;;;;;;3.08;1.10;;;20.20;79.60;;;;;;5052871;28;20043;-66
2022/06/25 04:12:36;;;;;;;5.10;1.38;;;20.20;79.70;;;;;;5058226;28;20776;-66
2022/06/25 04:15:03;;;;;;;2.00;1.08;;;20.20;79.70;;;;;;5056793;28;20556;-66
2022/06/25 04:17:30;;;;;;;1.98;1.10;;;20.20;79.60;;;;;;5038730;28;20084;-67
2022/06/25 04:19:58;;;;;;;1.90;1.08;;;20.20;79.60;;;;;;5068466;28;20508;-69
2022/06/25 04:22:27;;;;;;;2.67;1.05;;;20.20;79.70;;;;;;5049881;28;20068;-67
2022/06/25 04:24:54;;;;;;;1.88;1.00;;;20.20;79.60;;;;;;5048310;28;20139;-66
2022/06/25 04:30:07;;;;;;;2.80;1.10;;;20.30;79.60;;;;;;5039540;28;20045;-70
2022/06/25 04:32:36;;;;;;;5.68;1.58;;;20.30;79.70;;;;;;5059466;28;20061;-69
2022/06/25 04:35:29;;;;;;;2.42;1.20;;;20.30;79.70;;;;;;5057814;28;20045;-65
2022/06/25 04:38:00;;;;;;;4.68;1.25;;;20.30;79.80;;;;;;5057330;28;20493;-65
2022/06/25 04:40:29;;;;;;;3.83;1.27;;;20.30;79.80;;;;;;5056183;28;20097;-67
2022/06/25 04:42:56;;;;;;;3.60;1.20;;;20.20;79.80;;;;;;5056952;28;20584;-68
2022/06/25 04:45:23;;;;;;;5.15;1.42;;;20.20;79.80;;;;;;5056225;28;20504;-69
2022/06/25 04:48:03;;;;;;;5.70;1.10;;;20.20;79.80;;;;;;5056430;28;20048;-65
2022/06/25 04:50:59;;;;;;;3.00;1.02;;;20.30;79.70;;;;;;5057400;28;20125;-65
2022/06/25 04:53:28;;;;;;;2.45;1.40;;;20.30;79.70;;;;;;5056034;28;20046;-68
2022/06/25 04:55:55;;;;;;;1.88;1.10;;;20.30;79.60;;;;;;5054044;28;20110;-66
2022/06/25 04:58:22;;;;;;;2.63;1.35;;;20.30;79.60;;;;;;5046188;28;20051;-67
2022/06/25 05:01:09;;;;;;;4.25;1.55;;;20.30;79.80;;;;;;5049743;28;20408;-67
2022/06/25 05:03:36;;;;;;;5.47;1.30;;;20.20;80.20;;;;;;5059756;28;20056;-69
2022/06/25 05:06:10;;;;;;;4.07;1.30;;;20.10;80.50;;;;;;5053039;28;20033;-69
2022/06/25 05:08:40;;;;;;;2.92;1.25;;;20.10;80.90;;;;;;5055178;28;20045;-68
2022/06/25 05:11:07;;;;;;;2.27;1.30;;;20.00;81.00;;;;;;5055042;28;20049;-67
2022/06/25 05:13:34;;;;;;;4.88;1.15;;;20.00;81.00;;;;;;5055692;28;20055;-70
2022/06/25 05:16:01;;;;;;;2.25;1.45;;;20.00;81.00;;;;;;5057041;28;20127;-67
2022/06/25 05:18:30;;;;;;;5.53;1.45;;;20.00;80.90;;;;;;5055732;28;20584;-66
2022/06/25 05:20:57;;;;;;;5.93;1.30;;;20.00;80.90;;;;;;5050897;28;20048;-66
2022/06/25 05:23:24;;;;;;;2.97;1.20;;;20.00;81.10;;;;;;5054120;28;20044;-67
2022/06/25 05:25:53;;;;;;;2.08;1.05;;;20.00;81.30;;;;;;5054796;28;20045;-69
2022/06/25 05:28:20;;;;;;;2.85;1.13;;;20.10;81.30;;;;;;5053335;28;20481;-69
2022/06/25 05:30:47;;;;;;;1.67;1.13;;;20.10;81.00;;;;;;5055293;28;20135;-67
2022/06/25 05:33:14;;;;;;;4.20;1.33;;;20.10;80.90;;;;;;5055573;28;20048;-70
2022/06/25 05:35:42;;;;;;;6.13;1.20;;;20.20;80.70;;;;;;5038619;28;20095;-71
2022/06/25 05:38:09;;;;;;;4.25;1.35;;;20.20;80.90;;;;;;5056567;28;20524;-66
2022/06/25 05:40:36;;;;;;;4.38;1.27;;;20.20;80.40;;;;;;5071238;28;20087;-69
2022/06/25 05:43:04;;;;;;;2.33;1.35;;;20.30;80.50;;;;;;5057133;28;20044;-67
2022/06/25 05:45:31;;;;;;;6.10;1.48;;;20.30;80.30;;;;;;5055269;28;20048;-68
2022/06/25 05:47:58;;;;;;;1.45;0.80;;;20.30;80.20;;;;;;5053698;28;20053;-65
2022/06/25 05:50:26;;;;;;;3.22;1.40;;;20.30;80.40;;;;;;5049076;28;20077;-70
2022/06/25 05:52:54;;;;;;;2.28;1.33;;;20.30;80.50;;;;;;5047747;28;20476;-68
2022/06/25 05:55:22;;;;;;;4.35;1.40;;;20.30;80.50;;;;;;5050915;28;20889;-67
2022/06/25 05:57:49;;;;;;;2.63;1.27;;;20.30;80.30;;;;;;5048103;28;20596;-68
2022/06/25 06:00:19;;;;;;;2.05;1.20;;;20.40;80.30;;;;;;5046267;28;20055;-67
2022/06/25 06:02:46;;;;;;;;;;;20.40;80.20;;;;;;5053481;28;20053;-69
2022/06/25 06:05:13;;;;;;;3.25;1.48;;;20.50;80.00;;;;;;5049087;28;20004;-67
2022/06/25 06:07:40;;;;;;;3.05;1.23;;;20.60;79.90;;;;;;5045434;28;20076;-67
2022/06/25 06:10:08;;;;;;;2.15;1.40;;;20.60;79.90;;;;;;5049168;28;20388;-67
2022/06/25 06:12:35;;;;;;;3.00;1.65;;;20.60;80.00;;;;;;5049269;28;20048;-68
2022/06/25 06:15:02;;;;;;;2.42;1.52;;;20.60;79.80;;;;;;5047099;28;20076;-68
2022/06/25 06:17:31;;;;;;;2.33;1.45;;;20.70;79.20;;;;;;5044547;28;20509;-67
2022/06/25 06:19:58;;;;;;;2.90;2.00;;;20.70;79.10;;;;;;5045184;28;20062;-69
2022/06/25 06:22:26;;;;;;;4.05;1.88;;;20.70;78.60;;;;;;5048165;28;20049;-68
2022/06/25 06:24:53;;;;;;;3.17;2.08;;;20.70;78.60;;;;;;5046275;28;20056;-68
2022/06/25 06:27:21;;;;;;;3.55;1.95;;;20.60;78.80;;;;;;5049457;28;20138;-68
2022/06/25 06:29:48;;;;;;;5.00;1.63;;;20.70;78.80;;;;;;5047413;28;20107;-68
2022/06/25 06:32:15;;;;;;;3.53;2.28;;;20.80;78.70;;;;;;5043601;28;20049;-66
2022/06/25 06:34:44;;;;;;;4.15;2.30;;;20.90;78.70;;;;;;5042099;28;20111;-67
2022/06/25 06:37:11;;;;;;;5.60;2.55;;;21.10;78.30;;;;;;5044039;28;20377;-70
2022/06/25 06:39:38;;;;;;;4.53;2.50;;;21.00;78.00;;;;;;5044404;28;20049;-67
2022/06/25 06:42:05;;;;;;;3.72;2.20;;;21.10;77.90;;;;;;5047550;28;20072;-70
2022/06/25 06:44:32;;;;;;;6.78;2.50;;;21.10;77.50;;;;;;5046332;28;20049;-69
2022/06/25 06:46:59;;;;;;;5.43;2.60;;;21.00;77.30;;;;;;5043747;28;20482;-68
2022/06/25 06:49:26;;;;;;;7.80;3.05;;;21.00;77.40;;;;;;5045988;28;20048;-69
2022/06/25 06:51:54;;;;;;;5.20;3.20;;;21.00;77.30;;;;;;5044179;28;20048;-69
2022/06/25 06:54:21;;;;;;;5.13;3.03;;;20.90;77.00;;;;;;5046614;28;20686;-65
2022/06/25 06:56:48;;;;;;;5.85;3.00;;;21.00;76.90;;;;;;5054455;28;20041;-68
2022/06/25 06:59:15;;;;;;;4.35;2.70;;;21.20;76.40;;;;;;5054633;28;20048;-68
2022/06/25 07:01:42;;;;;;;4.78;2.55;;;21.30;76.10;;;;;;5043428;28;20409;-69
2022/06/25 07:04:09;;;;;;;3.45;2.40;;;21.30;76.00;;;;;;5045219;28;20670;-68
2022/06/25 07:06:36;;;;;;;4.95;2.95;;;21.60;75.80;;;;;;5044858;28;20037;-65
2022/06/25 07:09:04;;;;;;;7.22;2.63;;;21.70;75.20;;;;;;5046137;28;20492;-67
2022/06/25 07:11:31;;;;;;;4.35;2.72;;;21.80;74.50;;;;;;5043356;28;20137;-66
2022/06/25 07:14:00;;;;;;;6.70;2.92;;;21.80;74.30;;;;;;5048218;28;20053;-70
2022/06/25 07:16:29;;;;;;;4.57;3.20;;;21.80;74.20;;;;;;5048816;28;20492;-68
2022/06/25 07:18:57;;;;;;;4.63;2.50;;;21.80;74.20;;;;;;5046084;28;20514;-71
2022/06/25 07:21:24;;;;;;;4.20;2.47;;;21.70;74.10;;;;;;5049167;28;20047;-67
2022/06/25 07:23:52;;;;;;;4.43;2.70;;;21.80;74.50;;;;;;5046884;28;20036;-70
2022/06/25 07:26:22;;;;;;;4.57;2.60;;;22.10;74.10;;;;;;5048521;28;20052;-66
2022/06/25 07:28:49;;;;;;;3.15;2.25;;;22.20;73.70;;;;;;5064628;28;20131;-66
2022/06/25 07:31:16;;;;;;;5.03;2.28;;;22.20;73.20;;;;;;5054336;28;20040;-71
2022/06/25 07:33:43;;;;;;;3.42;2.30;;;22.10;73.10;;;;;;5052680;28;20549;-68
2022/06/25 07:36:10;;;;;;;4.90;2.58;;;22.10;73.20;;;;;;5045738;28;20049;-68
2022/06/25 07:38:37;;;;;;;3.80;2.30;;;22.20;72.90;;;;;;5049631;28;20508;-69
2022/06/25 07:41:05;;;;;;;6.82;2.35;;;22.10;72.60;;;;;;5049208;28;20100;-68
2022/06/25 07:43:33;;;;;;;5.95;2.50;;;22.10;73.00;;;;;;5051863;28;20061;-66
2022/06/25 07:46:00;;;;;;;5.13;2.90;;;22.00;73.10;;;;;;5050751;28;20052;-66
2022/06/25 07:48:27;;;;;;;4.70;2.80;;;22.00;73.30;;;;;;5053107;28;20044;-66
2022/06/25 07:53:39;;;;;;;4.55;2.70;;;22.10;73.40;;;;;;5051324;28;20059;-67
2022/06/25 07:56:06;;;;;;;5.95;3.20;;;22.20;73.20;;;;;;5051596;28;20052;-66
2022/06/25 07:58:35;;;;;;;4.72;2.75;;;22.50;73.00;;;;;;5052808;28;20468;-67
2022/06/25 08:01:02;;;;;;;7.13;2.90;;;22.60;72.20;;;;;;5047136;28;20531;-68
2022/06/25 08:03:29;;;;;;;5.53;2.25;;;22.60;71.80;;;;;;5048171;28;20055;-70
2022/06/25 08:05:57;;;;;;;4.78;2.42;;;22.60;71.80;;;;;;5049318;28;20563;-67
2022/06/25 08:08:24;;;;;;;5.13;2.40;;;22.50;71.70;;;;;;5048729;28;20060;-68
2022/06/25 08:10:51;;;;;;;5.50;2.20;;;22.50;71.50;;;;;;5046809;28;20088;-67
2022/06/25 08:13:18;;;;;;;5.05;2.33;;;22.60;71.10;;;;;;5048320;28;20052;-67
2022/06/25 08:15:47;;;;;;;5.03;2.53;;;22.60;71.00;;;;;;5046210;28;20135;-71
2022/06/25 08:18:13;;;;;;;4.45;2.80;;;22.60;70.80;;;;;;5050838;28;20045;-68
2022/06/25 08:20:40;;;;;;;4.80;2.33;;;22.60;70.60;;;;;;5047420;28;20045;-67
2022/06/25 08:23:08;;;;;;;6.13;2.85;;;22.60;70.60;;;;;;5051158;28;20050;-67
2022/06/25 08:25:35;;;;;;;4.57;2.85;;;22.80;70.40;;;;;;5047080;28;20564;-69
2022/06/25 08:28:02;;;;;;;5.68;2.40;;;23.00;70.00;;;;;;5046013;28;20045;-67
2022/06/25 08:30:29;;;;;;;4.55;2.50;;;23.00;69.90;;;;;;5046680;28;20100;-69
2022/06/25 08:32:57;;;;;;;4.38;2.40;;;22.90;69.70;;;;;;5046339;28;20536;-66
2022/06/25 08:35:24;;;;;;;5.45;2.35;;;22.90;69.80;;;;;;5048573;28;20124;-69
2022/06/25 08:37:51;;;;;;;3.88;2.42;;;22.90;70.00;;;;;;5051788;28;20072;-68
2022/06/25 08:40:20;;;;;;;4.97;2.40;;;23.00;69.50;;;;;;5048616;28;20535;-70
2022/06/25 08:42:48;;;;;;;3.35;2.05;;;23.20;69.20;;;;;;5047593;28;20099;-69
2022/06/25 08:45:16;;;;;;;4.90;2.20;;;23.30;68.30;;;;;;5046245;28;20045;-69
2022/06/25 08:47:44;;;;;;;5.15;2.70;;;23.30;68.10;;;;;;5046380;28;20045;-71
2022/06/25 08:50:14;;;;;;;5.97;3.20;;;23.20;68.60;;;;;;5046556;28;20056;-66
2022/06/25 08:52:44;;;;;;;5.15;2.30;;;23.20;68.90;;;;;;5050218;28;20048;-69
2022/06/25 08:55:16;;;;;;;4.45;2.60;;;23.30;69.00;;;;;;5047516;28;20476;-69
2022/06/25 08:57:43;;;;;;;5.30;2.55;;;23.50;68.70;;;;;;5048251;28;20072;-68
2022/06/25 09:00:11;;;;;;;4.07;2.60;;;23.50;68.70;;;;;;5047557;28;20048;-68
2022/06/25 09:02:40;;;;;;;4.28;2.35;;;23.70;67.50;;;;;;5050877;28;20094;-68
2022/06/25 09:05:09;;;;;;;5.87;2.73;;;23.80;67.30;;;;;;5048856;28;20048;-70
2022/06/25 09:07:37;;;;;;;4.65;2.70;;;23.70;67.20;;;;;;5048556;28;20451;-66
2022/06/25 09:10:04;;;;;;;4.78;2.20;;;23.80;67.90;;;;;;5048277;28;20044;-71
2022/06/25 09:12:34;;;;;;;4.38;3.13;;;23.90;67.20;;;;;;5047143;28;20408;-70
2022/06/25 09:15:01;;;;;;;4.10;2.33;;;24.10;67.00;;;;;;5050723;28;20048;-70
2022/06/25 09:17:28;;;;;;;4.88;2.60;;;24.20;66.40;;;;;;5045788;28;20400;-67
2022/06/25 09:19:57;;;;;;;5.22;2.58;;;24.20;66.10;;;;;;5046606;28;20098;-68
2022/06/25 09:22:25;;;;;;;4.07;2.85;;;24.20;66.20;;;;;;5046349;28;20077;-65
2022/06/25 09:24:57;;;;;;;3.55;2.38;;;24.20;66.10;;;;;;5048985;28;20068;-70
2022/06/25 09:27:36;;;;;;;7.78;4.18;;;24.30;65.20;;;;;;5049427;28;20044;-69
2022/06/25 09:30:14;;;;;;;8.45;5.20;;;24.30;65.50;;;;;;5046266;28;20048;-67
2022/06/25 09:32:45;;;;;;;7.65;5.35;;;24.30;66.00;;;;;;5047507;28;20052;-67
2022/06/25 09:35:12;;;;;;;8.95;5.78;;;24.40;65.20;;;;;;5049669;28;20044;-69
2022/06/25 09:37:41;;;;;;;7.95;4.95;;;24.50;65.40;;;;;;5047478;28;20057;-66
2022/06/25 09:40:10;;;;;;;4.32;3.13;;;24.60;65.00;;;;;;5052086;28;20048;-68
2022/06/25 09:42:38;;;;;;;6.30;3.10;;;24.80;63.40;;;;;;5049427;28;20459;-70
2022/06/25 09:45:08;;;;;;;7.60;4.78;;;24.90;62.80;;;;;;5044351;28;20138;-68
2022/06/25 09:47:37;;;;;;;11.05;5.88;;;25.00;62.80;;;;;;5049710;28;20139;-68
2022/06/25 09:50:10;;;;;;;7.03;4.07;;;25.10;62.40;;;;;;5046017;28;20135;-70
2022/06/25 09:52:38;;;;;;;7.70;3.65;;;25.10;62.00;;;;;;5044880;28;20049;-66
2022/06/25 09:55:07;;;;;;;7.32;3.08;;;25.20;62.20;;;;;;5041616;28;20555;-67
2022/06/25 09:57:35;;;;;;;3.78;2.55;;;25.30;61.80;;;;;;5045437;28;20045;-69
2022/06/25 10:00:03;;;;;;;4.27;2.83;;;25.30;61.10;;;;;;5045984;28;20057;-66
2022/06/25 10:02:38;;;;;;;4.70;2.85;;;25.50;60.90;;;;;;5046288;28;20510;-69
2022/06/25 10:05:06;;;;;;;4.68;2.53;;;25.50;62.00;;;;;;5045179;28;20527;-66
2022/06/25 10:10:19;;;;;;;7.18;2.55;;;25.60;60.60;;;;;;5032860;28;20056;-69
2022/06/25 10:12:49;;;;;;;4.22;2.45;;;25.70;61.50;;;;;;5050959;28;20351;-66
2022/06/25 10:15:18;;;;;;;3.38;2.20;;;25.70;61.00;;;;;;5047741;28;20052;-66
2022/06/25 10:17:46;;;;;;;2.92;2.15;;;25.90;59.90;;;;;;5045285;28;20044;-69
2022/06/25 10:20:14;;;;;;;5.68;1.92;;;25.90;59.60;;;;;;5047579;28;20048;-69
2022/06/25 10:22:42;;;;;;;2.90;1.85;;;26.00;59.50;;;;;;5047228;28;20048;-70
2022/06/25 10:25:11;;;;;;;5.72;2.03;;;26.00;59.30;;;;;;5046075;28;20164;-70
2022/06/25 10:27:40;;;;;;;3.20;2.08;;;26.00;58.80;;;;;;5046817;28;20077;-67
2022/06/25 10:30:09;;;;;;;3.40;1.80;;;26.10;59.10;;;;;;5047119;28;20047;-68
2022/06/25 10:32:42;;;;;;;;;;;26.10;59.20;;;;;;5047897;28;20045;-68
2022/06/25 10:35:09;;;;;;;2.97;1.90;;;26.10;58.90;;;;;;5045895;28;19928;-69
2022/06/25 10:38:03;;;;;;;3.20;1.70;;;26.10;58.40;;;;;;5047958;28;20040;-68
2022/06/25 10:40:31;;;;;;;3.20;2.17;;;26.10;58.90;;;;;;5045289;28;20059;-69
2022/06/25 10:43:02;;;;;;;3.90;2.40;;;26.20;58.00;;;;;;5045919;28;20049;-70
2022/06/25 10:45:52;;;;;;;3.95;2.22;;;26.10;58.80;;;;;;5046700;28;20090;-70
2022/06/25 10:48:25;;;;;;;2.53;1.70;;;26.20;58.00;;;;;;5049336;28;20061;-70
2022/06/25 10:50:55;;;;;;;3.67;2.28;;;26.10;58.00;;;;;;5047496;28;20512;-69
2022/06/25 10:53:26;;;;;;;4.07;2.10;;;26.10;58.10;;;;;;5049029;28;20103;-71
2022/06/25 10:56:17;;;;;;;3.83;2.03;;;26.00;58.20;;;;;;5055801;28;20049;-69
2022/06/25 10:58:48;;;;;;;6.82;2.47;;;26.00;58.30;;;;;;5056193;28;20102;-69
2022/06/25 11:01:29;;;;;;;2.97;1.85;;;26.00;59.10;;;;;;5048308;28;20049;-70
2022/06/25 11:03:58;;;;;;;3.33;1.90;;;26.10;58.00;;;;;;5051734;28;20045;-66
2022/06/25 11:06:29;;;;;;;3.22;2.08;;;26.20;58.10;;;;;;5057235;28;20114;-70
2022/06/25 11:09:04;;;;;;;8.57;3.95;;;26.30;57.70;;;;;;5059018;28;20048;-67
2022/06/25 11:11:33;;;;;;;5.60;2.55;;;26.40;58.30;;;;;;5051607;28;20037;-68
2022/06/25 11:14:01;;;;;;;5.07;2.17;;;26.50;57.40;;;;;;5055369;28;20068;-68
2022/06/25 11:16:30;;;;;;;3.53;1.85;;;26.40;56.80;;;;;;5055075;28;20045;-66
2022/06/25 11:18:58;;;;;;;3.30;1.70;;;26.40;56.90;;;;;;5053173;28;20403;-66
2022/06/25 11:21:26;;;;;;;2.95;1.75;;;26.40;56.70;;;;;;5055050;28;20097;-68
2022/06/25 11:23:54;;;;;;;4.57;1.65;;;26.30;56.80;;;;;;5054205;28;20078;-68
2022/06/25 11:29:06;;;;;;;2.17;1.52;;;26.40;56.60;;;;;;5056009;28;20047;-68
2022/06/25 11:31:35;;;;;;;3.30;1.80;;;26.50;56.10;;;;;;5050803;28;20050;-70
2022/06/25 11:34:03;;;;;;;;;;;26.50;56.10;;;;;;5053391;28;20044;-69
2022/06/25 11:36:33;;;;;;;2.65;1.20;;;26.40;56.10;;;;;;5053247;28;20376;-66
2022/06/25 11:39:00;;;;;;;1.85;1.27;;;26.50;55.50;;;;;;5052592;28;20048;-68
2022/06/25 11:41:30;;;;;;;2.28;1.58;;;26.50;55.50;;;;;;5053353;28;20043;-69
2022/06/25 11:44:05;;;;;;;2.47;1.60;;;26.50;54.90;;;;;;5051028;28;20069;-69
2022/06/25 11:46:35;;;;;;;2.15;1.17;;;26.50;54.60;;;;;;5051517;28;20489;-65
2022/06/25 11:49:05;;;;;;;4.15;1.40;;;26.60;54.40;;;;;;5051335;28;20049;-67
2022/06/25 11:51:32;;;;;;;3.08;1.48;;;26.60;54.50;;;;;;5049831;28;20693;-69
2022/06/25 11:54:05;;;;;;;4.80;2.05;;;26.70;53.90;;;;;;5051339;28;20053;-67
2022/06/25 11:56:33;;;;;;;3.13;1.63;;;26.80;53.80;;;;;;5051678;28;20379;-70
2022/06/25 11:59:00;;;;;;;2.88;1.70;;;26.80;53.60;;;;;;5053296;28;20043;-66
2022/06/25 12:01:29;;;;;;;4.20;2.58;;;26.80;53.70;;;;;;5049045;28;20049;-67
2022/06/25 12:03:58;;;;;;;4.10;1.63;;;26.70;53.90;;;;;;5049085;28;20068;-69
2022/06/25 12:06:25;;;;;;;4.15;1.75;;;26.70;53.50;;;;;;5053647;28;20052;-69
2022/06/25 12:08:52;;;;;;;3.47;1.40;;;26.80;53.30;;;;;;5049655;28;20432;-67
2022/06/25 12:11:20;;;;;;;3.17;1.73;;;26.70;53.40;;;;;;5050018;28;20054;-67
2022/06/25 12:13:47;;;;;;;3.75;2.05;;;26.80;53.20;;;;;;5050641;28;20055;-68
2022/06/25 12:16:15;;;;;;;3.10;1.60;;;26.80;53.60;;;;;;5050984;28;20421;-69
2022/06/25 12:18:44;;;;;;;4.00;1.67;;;26.90;53.20;;;;;;5048527;28;20385;-68
2022/06/25 12:21:20;;;;;;;4.10;1.30;;;26.80;53.60;;;;;;5049752;28;20040;-68
2022/06/25 12:23:52;;;;;;;3.30;1.23;;;26.80;53.20;;;;;;5049133;28;20749;-70
2022/06/25 12:26:27;;;;;;;3.78;1.60;;;26.80;53.00;;;;;;5049491;28;20055;-67
2022/06/25 12:29:08;;;;;;;2.28;1.40;;;26.70;53.10;;;;;;5048513;28;20052;-67
2022/06/25 12:31:36;;;;;;;4.05;1.20;;;26.70;53.10;;;;;;5047810;28;20136;-70
2022/06/25 12:34:03;;;;;;;1.67;1.05;;;26.70;53.00;;;;;;5048792;28;20041;-67
2022/06/25 12:36:36;;;;;;;3.03;1.40;;;26.70;53.20;;;;;;5065453;28;20044;-68
2022/06/25 12:39:04;;;;;;;2.00;1.30;;;26.70;53.10;;;;;;5047463;28;20045;-70
2022/06/25 12:41:47;;;;;;;4.70;2.15;;;26.80;53.00;;;;;;5049331;28;20083;-71
2022/06/25 12:44:14;;;;;;;3.50;1.50;;;26.80;53.20;;;;;;5051701;28;20636;-69
2022/06/25 12:46:42;;;;;;;3.08;1.50;;;26.90;53.00;;;;;;5050538;28;20049;-69
2022/06/25 12:49:12;;;;;;;2.85;1.60;;;26.90;52.80;;;;;;5047565;28;20041;-69
2022/06/25 12:51:41;;;;;;;2.67;1.50;;;26.90;52.80;;;;;;5049436;28;20048;-70
2022/06/25 12:54:08;;;;;;;2.40;1.30;;;26.90;52.80;;;;;;5049082;28;20055;-72
2022/06/25 12:56:35;;;;;;;7.15;1.38;;;26.90;52.80;;;;;;5044821;28;20401;-67
2022/06/25 12:59:02;;;;;;;3.05;1.33;;;26.90;52.60;;;;;;5049492;28;20045;-66
2022/06/25 13:01:30;;;;;;;3.83;1.40;;;27.00;52.60;;;;;;5050329;28;20040;-67
2022/06/25 13:03:57;;;;;;;3.65;2.17;;;27.00;52.50;;;;;;5049194;28;20102;-65
2022/06/25 13:06:24;;;;;;;5.35;1.80;;;27.10;53.00;;;;;;5049939;28;20396;-70
2022/06/25 13:08:53;;;;;;;1.92;1.20;;;27.10;52.30;;;;;;5046112;28;20070;-65
2022/06/25 13:11:21;;;;;;;4.23;1.30;;;27.00;52.40;;;;;;5049218;28;20134;-68
2022/06/25 13:13:49;;;;;;;2.73;0.97;;;27.00;52.40;;;;;;5042260;28;20144;-68